Time;durP1;ratioP1;P1;durP2;ratioP2;P2;SDS_P1;SDS_P2;PMS_P1;PMS_P2;Temp;Humidity;BMP_temperature;BMP_pressure;BME280_temperature;BME280_humidity;BME280_pressure;Samples;Min_cycle;Max_cycle;Signal;HPM_P1;HPM_P2
2023/01/29 00:00:20;;;;;;;1.30;0.80;;;3.00;99.90;;;;;;6190664;23;20088;-91
2023/01/29 00:02:48;;;;;;;;;;;4.00;99.90;;;;;;6189615;23;20020;-91
2023/01/29 00:05:17;;;;;;;2.40;0.95;;;3.00;99.90;;;;;;6189233;23;20332;-92
2023/01/29 00:07:49;;;;;;;1.08;1.02;;;3.00;99.90;;;;;;6215071;23;20020;-91
2023/01/29 00:10:24;;;;;;;1.55;0.80;;;3.30;99.90;;;;;;6164987;23;20028;-91
2023/01/29 00:12:55;;;;;;;1.42;0.80;;;3.00;99.90;;;;;;6189354;23;20028;-91
2023/01/29 00:15:30;;;;;;;3.95;1.02;;;3.00;99.90;;;;;;6188405;23;20024;-91
2023/01/29 00:18:00;;;;;;;1.55;0.80;;;2.40;99.90;;;;;;6189028;23;20100;-94
2023/01/29 00:20:32;;;;;;;1.35;0.88;;;2.00;99.90;;;;;;6189146;23;20024;-92
2023/01/29 00:23:03;;;;;;;1.63;1.33;;;3.00;99.90;;;;;;6189043;23;20532;-91
2023/01/29 00:25:49;;;;;;;1.50;0.98;;;3.10;99.90;;;;;;6188666;23;20457;-91
2023/01/29 00:28:17;;;;;;;1.05;0.90;;;3.00;99.90;;;;;;6188276;23;20028;-92
2023/01/29 00:30:51;;;;;;;2.47;1.08;;;3.10;99.90;;;;;;6189501;23;20023;-91
2023/01/29 00:33:29;;;;;;;1.15;0.70;;;3.20;99.90;;;;;;6188337;23;20023;-91
2023/01/29 00:36:00;;;;;;;0.85;0.68;;;3.10;99.90;;;;;;6166218;23;20025;-91
2023/01/29 00:38:36;;;;;;;1.15;0.98;;;2.40;99.90;;;;;;6189722;23;20020;-91
2023/01/29 00:46:42;;;;;;;3.33;1.70;;;3.10;99.90;;;;;;6214201;23;20021;-90
2023/01/29 00:49:13;;;;;;;2.25;1.98;;;4.00;99.90;;;;;;6188839;23;20092;-91
2023/01/29 00:52:22;;;;;;;4.57;1.05;;;3.10;99.90;;;;;;6189310;23;20012;-92
2023/01/29 00:54:35;;;;;;;2.35;1.40;;;2.60;99.90;;;;;;6213115;23;20023;-91
2023/01/29 00:57:04;;;;;;;1.88;1.20;;;2.50;99.90;;;;;;6165148;23;20024;-91
2023/01/29 00:59:32;;;;;;;0.85;0.65;;;3.00;99.90;;;;;;6213845;23;20016;-91
2023/01/29 01:05:16;;;;;;;2.58;1.05;;;3.10;99.90;;;;;;6193440;23;20021;-92
2023/01/29 01:07:44;;;;;;;1.73;1.00;;;3.00;99.90;;;;;;6212490;23;20017;-91
2023/01/29 01:10:23;;;;;;;1.58;0.90;;;3.00;99.90;;;;;;6188936;23;20016;-91
2023/01/29 01:13:02;;;;;;;1.27;0.95;;;3.00;99.90;;;;;;6188316;23;20052;-92
2023/01/29 01:15:36;;;;;;;1.00;0.98;;;3.10;99.90;;;;;;6164317;23;20082;-91
2023/01/29 01:18:02;;;;;;;2.13;1.13;;;4.00;99.90;;;;;;6213340;23;20453;-91
2023/01/29 01:20:38;;;;;;;2.95;1.50;;;3.00;99.90;;;;;;6188352;23;20340;-91
2023/01/29 01:23:15;;;;;;;2.65;1.20;;;3.50;99.90;;;;;;6213294;23;20445;-91
2023/01/29 01:26:05;;;;;;;1.13;0.98;;;3.10;99.90;;;;;;6213633;23;20096;-92
2023/01/29 01:28:30;;;;;;;2.95;1.00;;;4.20;99.90;;;;;;6187065;23;20016;-91
2023/01/29 01:31:19;;;;;;;1.58;1.25;;;4.00;99.90;;;;;;6213184;23;20024;-91
2023/01/29 01:33:50;;;;;;;1.23;0.70;;;3.10;99.90;;;;;;6187258;23;20024;-91
2023/01/29 01:36:21;;;;;;;2.42;0.88;;;3.10;99.90;;;;;;6163851;23;20023;-92
2023/01/29 01:38:49;;;;;;;2.35;1.05;;;3.10;99.90;;;;;;6188948;23;20516;-92
2023/01/29 01:41:20;;;;;;;1.35;1.15;;;3.60;99.90;;;;;;6188009;23;20075;-92
2023/01/29 01:43:59;;;;;;;1.48;1.00;;;3.10;99.90;;;;;;6188056;23;20020;-92
2023/01/29 01:46:35;;;;;;;1.92;1.30;;;3.20;99.90;;;;;;6213368;23;20021;-92
2023/01/29 01:49:20;;;;;;;2.78;1.40;;;3.10;99.90;;;;;;6188862;23;20028;-91
2023/01/29 01:51:49;;;;;;;3.15;0.93;;;3.10;99.90;;;;;;6188956;23;20475;-91
2023/01/29 01:54:28;;;;;;;0.85;0.85;;;3.20;99.90;;;;;;6213415;23;20448;-91
2023/01/29 01:57:08;;;;;;;4.93;0.77;;;2.90;99.90;;;;;;6188476;23;20017;-91
2023/01/29 01:59:42;;;;;;;1.92;1.20;;;3.10;99.90;;;;;;6213028;23;20051;-90
2023/01/29 02:11:08;;;;;;;2.10;1.15;;;3.10;99.90;;;;;;6213680;23;20252;-91
2023/01/29 02:13:37;;;;;;;3.38;1.52;;;3.20;99.90;;;;;;6213538;23;20032;-91
2023/01/29 02:16:18;;;;;;;;;;;;;;;;;;;;;
2023/01/29 02:18:50;;;;;;;2.78;1.70;;;3.00;99.90;;;;;;6213912;23;20016;-91
2023/01/29 02:21:24;;;;;;;2.22;1.17;;;3.30;99.90;;;;;;6213069;23;20012;-92
2023/01/29 02:24:07;;;;;;;4.60;2.35;;;3.00;99.90;;;;;;6213893;23;20052;-91
2023/01/29 02:26:42;;;;;;;2.95;1.33;;;3.00;99.90;;;;;;6188468;23;20522;-91
2023/01/29 02:29:27;;;;;;;0.88;0.88;;;3.10;99.90;;;;;;6188130;23;20028;-91
2023/01/29 02:32:17;;;;;;;3.25;1.20;;;3.10;99.90;;;;;;6188813;23;20066;-92
2023/01/29 02:38:59;;;;;;;3.40;1.50;;;3.10;99.90;;;;;;6100464;23;20522;-91
2023/01/29 02:41:41;;;;;;;1.13;1.02;;;3.10;99.90;;;;;;6187660;23;20063;-91
2023/01/29 02:44:17;;;;;;;1.63;1.50;;;3.10;99.90;;;;;;6189304;23;20039;-91
2023/01/29 02:46:53;;;;;;;1.60;0.80;;;3.00;99.90;;;;;;6187736;23;20064;-92
2023/01/29 02:49:26;;;;;;;1.65;1.30;;;3.10;99.90;;;;;;6188864;23;20016;-92
2023/01/29 02:52:04;;;;;;;2.92;1.00;;;3.10;99.90;;;;;;6190762;23;20457;-92
2023/01/29 02:54:52;;;;;;;2.72;1.63;;;4.00;99.90;;;;;;6190083;23;20393;-91
2023/01/29 02:57:39;;;;;;;2.85;0.77;;;3.10;99.90;;;;;;6190004;23;20020;-94
2023/01/29 03:00:29;;;;;;;2.28;0.90;;;3.10;99.90;;;;;;6190280;23;20024;-91
2023/01/29 03:03:23;;;;;;;1.10;0.95;;;3.10;99.90;;;;;;6190011;23;20052;-91
2023/01/29 03:06:05;;;;;;;0.95;0.88;;;3.20;99.90;;;;;;6196001;23;20013;-92
2023/01/29 03:08:44;;;;;;;1.20;0.80;;;3.10;99.90;;;;;;6189733;23;20449;-91
2023/01/29 03:11:23;;;;;;;3.25;1.52;;;3.00;99.90;;;;;;6215497;23;20099;-92
2023/01/29 03:14:07;;;;;;;3.42;1.17;;;3.20;99.90;;;;;;6190290;23;20020;-91
2023/01/29 03:16:46;;;;;;;3.25;0.93;;;3.10;99.90;;;;;;6189455;23;20030;-91
2023/01/29 03:19:17;;;;;;;3.85;1.42;;;3.20;99.90;;;;;;6191843;23;20023;-90
2023/01/29 03:22:03;;;;;;;1.27;1.17;;;3.20;99.90;;;;;;6214884;23;20016;-91
2023/01/29 03:33:14;;;;;;;2.95;0.98;;;3.20;99.90;;;;;;6172712;23;20017;-91
2023/01/29 03:35:48;;;;;;;2.97;1.30;;;3.20;99.90;;;;;;6165074;23;20020;-91
2023/01/29 03:38:17;;;;;;;1.77;1.30;;;3.20;99.90;;;;;;6190044;23;20107;-91
2023/01/29 03:41:03;;;;;;;2.58;1.35;;;3.20;99.90;;;;;;6189312;23;20192;-92
2023/01/29 03:43:35;;;;;;;2.45;0.70;;;3.20;99.90;;;;;;6189550;23;20056;-91
2023/01/29 03:46:32;;;;;;;0.93;0.82;;;3.20;99.90;;;;;;6189747;23;20016;-91
2023/01/29 03:49:13;;;;;;;4.60;0.88;;;3.10;99.90;;;;;;6214803;23;20376;-92
2023/01/29 03:52:07;;;;;;;;;;;;;;;;;;;;;
2023/01/29 03:55:25;;;;;;;2.05;0.98;;;3.20;99.90;;;;;;6214460;23;20016;-91
2023/01/29 03:58:12;;;;;;;1.45;0.98;;;3.20;99.90;;;;;;6046528;23;20029;-91
2023/01/29 04:00:47;;;;;;;2.13;0.93;;;3.20;99.90;;;;;;6181113;23;20044;-91
2023/01/29 04:03:28;;;;;;;2.70;1.52;;;3.10;99.90;;;;;;6189956;23;20017;-91
2023/01/29 04:06:16;;;;;;;4.03;1.13;;;3.30;99.90;;;;;;6215294;23;20023;-91
2023/01/29 04:09:08;;;;;;;1.25;0.98;;;3.20;99.90;;;;;;6189078;23;20543;-91
2023/01/29 04:11:51;;;;;;;1.60;0.75;;;2.70;99.90;;;;;;6189240;23;20479;-91
2023/01/29 04:14:31;;;;;;;1.33;1.17;;;3.20;99.90;;;;;;6189217;23;20479;-91
2023/01/29 04:17:19;;;;;;;0.65;0.63;;;3.30;99.90;;;;;;6213935;23;20017;-92
2023/01/29 04:19:49;;;;;;;1.98;1.13;;;3.20;99.90;;;;;;6188559;23;20024;-91
2023/01/29 04:22:43;;;;;;;2.38;0.60;;;3.20;99.90;;;;;;6164663;23;20341;-91
2023/01/29 04:25:25;;;;;;;3.08;1.05;;;3.20;99.90;;;;;;6188669;23;20020;-91
2023/01/29 04:28:12;;;;;;;1.90;1.08;;;3.80;99.90;;;;;;6188461;23;20028;-91
2023/01/29 04:30:48;;;;;;;4.40;1.42;;;3.20;99.90;;;;;;6188478;23;20017;-91
2023/01/29 04:34:03;;;;;;;1.13;0.82;;;3.20;99.90;;;;;;6188281;23;20104;-92
2023/01/29 04:36:32;;;;;;;1.40;1.05;;;3.20;99.90;;;;;;6156576;23;20388;-92
2023/01/29 04:39:31;;;;;;;2.08;1.63;;;3.20;99.90;;;;;;6188351;23;20340;-91
2023/01/29 04:42:32;;;;;;;;;;;;;;;;;;;;;
2023/01/29 04:45:27;;;;;;;4.93;1.90;;;3.20;99.90;;;;;;6213582;23;20024;-92
2023/01/29 04:48:13;;;;;;;1.83;1.38;;;3.20;99.90;;;;;;6188248;23;20016;-91
2023/01/29 04:51:14;;;;;;;;;;;;;;;;;;;;;
2023/01/29 04:54:01;;;;;;;2.13;0.95;;;3.20;99.90;;;;;;6212927;23;20030;-92
2023/01/29 04:56:47;;;;;;;1.90;1.10;;;3.30;99.90;;;;;;6213585;23;20048;-91
2023/01/29 04:59:22;;;;;;;2.67;1.08;;;3.20;99.90;;;;;;6187743;23;20052;-91
2023/01/29 05:01:51;;;;;;;1.15;0.93;;;3.20;99.90;;;;;;6212095;23;20013;-91
2023/01/29 05:04:24;;;;;;;3.20;1.05;;;3.20;99.90;;;;;;6188805;23;20519;-91
2023/01/29 05:06:52;;;;;;;2.40;1.27;;;3.30;99.90;;;;;;6212914;23;20052;-92
2023/01/29 05:09:24;;;;;;;1.05;0.70;;;3.20;99.90;;;;;;6164438;23;20475;-91
2023/01/29 05:11:59;;;;;;;1.73;0.93;;;3.30;99.90;;;;;;6187414;23;20106;-91
2023/01/29 05:14:38;;;;;;;1.65;1.40;;;3.20;99.90;;;;;;6164959;23;20025;-91
2023/01/29 05:17:19;;;;;;;2.58;1.25;;;3.20;99.90;;;;;;6187452;23;20021;-91
2023/01/29 05:19:47;;;;;;;1.65;1.17;;;3.30;99.90;;;;;;6187744;23;20027;-91
2023/01/29 05:22:21;;;;;;;0.80;0.70;;;3.20;99.90;;;;;;6213166;23;20099;-92
2023/01/29 05:24:57;;;;;;;3.60;1.02;;;3.30;99.90;;;;;;6188799;23;20020;-91
2023/01/29 05:30:34;;;;;;;2.85;0.95;;;3.30;99.90;;;;;;6213981;23;20028;-91
2023/01/29 05:33:13;;;;;;;1.83;1.17;;;3.30;99.90;;;;;;6213079;23;20016;-91
2023/01/29 05:35:42;;;;;;;1.83;1.05;;;3.30;99.90;;;;;;6183159;23;20088;-92
2023/01/29 05:38:20;;;;;;;1.27;1.17;;;3.30;99.90;;;;;;6188525;23;20103;-91
2023/01/29 05:40:49;;;;;;;1.13;1.00;;;3.30;99.90;;;;;;6165830;23;20099;-91
2023/01/29 05:43:22;;;;;;;4.43;1.73;;;3.80;99.90;;;;;;6213949;23;20054;-91
2023/01/29 05:46:00;;;;;;;1.65;1.17;;;3.30;99.90;;;;;;6188408;23;20056;-91
2023/01/29 05:48:30;;;;;;;2.55;1.85;;;2.70;99.90;;;;;;6164184;23;20024;-91
2023/01/29 05:51:25;;;;;;;0.85;0.60;;;3.30;99.90;;;;;;6188409;23;20020;-92
2023/01/29 05:53:56;;;;;;;2.40;1.30;;;3.30;99.90;;;;;;6154711;23;20079;-91
2023/01/29 05:56:24;;;;;;;3.28;1.60;;;3.40;99.90;;;;;;6188732;23;20024;-91
2023/01/29 05:59:01;;;;;;;4.43;1.20;;;3.30;99.90;;;;;;6187833;23;20103;-91
2023/01/29 06:01:31;;;;;;;2.35;1.20;;;3.40;99.90;;;;;;6188426;23;20020;-91
2023/01/29 06:03:57;;;;;;;1.58;0.70;;;3.00;99.90;;;;;;6213368;23;20094;-90
2023/01/29 06:06:25;;;;;;;2.43;1.17;;;3.30;99.90;;;;;;6189098;23;20457;-91
2023/01/29 06:09:28;;;;;;;;;;;;;;;;;;;;;
2023/01/29 06:12:09;;;;;;;;;;;;;;;;;;;;;
2023/01/29 06:14:44;;;;;;;2.33;1.45;;;3.30;99.90;;;;;;6213096;23;20479;-91
2023/01/29 06:17:17;;;;;;;4.82;1.83;;;3.40;99.90;;;;;;6188859;23;20021;-91
2023/01/29 06:19:48;;;;;;;3.38;2.17;;;3.30;99.90;;;;;;6213859;23;20044;-91
2023/01/29 06:22:41;;;;;;;5.07;1.58;;;3.30;99.90;;;;;;6187367;23;20013;-92
2023/01/29 06:25:07;;;;;;;4.88;1.45;;;3.30;99.90;;;;;;6189450;23;20104;-91
2023/01/29 06:27:38;;;;;;;3.72;2.00;;;3.30;99.90;;;;;;6215798;23;20147;-91
2023/01/29 06:30:08;;;;;;;2.25;1.05;;;2.60;99.90;;;;;;6214649;23;20448;-91
2023/01/29 06:32:34;;;;;;;1.55;0.95;;;3.30;99.90;;;;;;6190515;23;20453;-91
2023/01/29 06:35:04;;;;;;;3.00;1.27;;;3.50;99.90;;;;;;6189089;23;20028;-91
2023/01/29 06:37:49;;;;;;;1.38;0.90;;;3.30;99.90;;;;;;6166739;23;20024;-91
2023/01/29 06:40:29;;;;;;;2.20;1.10;;;3.10;99.90;;;;;;6192125;23;20095;-92
2023/01/29 06:43:01;;;;;;;4.15;1.75;;;3.30;99.90;;;;;;6166332;23;20028;-91
2023/01/29 06:45:30;;;;;;;2.85;1.27;;;3.30;99.90;;;;;;6189555;23;20087;-92
2023/01/29 06:48:16;;;;;;;2.88;0.80;;;3.30;99.90;;;;;;6189037;23;20095;-91
2023/01/29 06:50:48;;;;;;;2.97;1.65;;;3.30;99.90;;;;;;6190180;23;20025;-92
2023/01/29 06:53:22;;;;;;;4.75;1.50;;;3.10;99.90;;;;;;6214691;23;20023;-91
2023/01/29 06:56:04;;;;;;;2.28;1.30;;;3.30;99.90;;;;;;6165301;23;20024;-92
2023/01/29 06:58:38;;;;;;;4.22;1.55;;;2.50;99.90;;;;;;6186914;23;20322;-93
2023/01/29 07:01:14;;;;;;;4.93;1.45;;;3.40;99.90;;;;;;6188671;23;20472;-91
2023/01/29 07:03:43;;;;;;;3.92;1.77;;;3.40;99.90;;;;;;6189766;23;20123;-91
2023/01/29 07:06:21;;;;;;;;;;;;;;;;;;;;;
2023/01/29 07:08:49;;;;;;;8.38;2.65;;;3.30;99.90;;;;;;6214920;23;20310;-91
2023/01/29 07:11:21;;;;;;;2.45;1.30;;;3.30;99.90;;;;;;6189100;23;20124;-91
2023/01/29 07:13:49;;;;;;;2.88;1.98;;;3.40;99.90;;;;;;6190689;23;20071;-91
2023/01/29 07:16:18;;;;;;;2.53;1.27;;;3.40;99.90;;;;;;6189075;23;20349;-91
2023/01/29 07:18:53;;;;;;;2.05;1.35;;;3.40;99.90;;;;;;6189599;23;20523;-92
2023/01/29 07:21:28;;;;;;;2.72;1.30;;;3.30;99.90;;;;;;6165822;23;20020;-91
2023/01/29 07:23:56;;;;;;;5.00;2.35;;;3.30;99.90;;;;;;6188962;23;20016;-91
2023/01/29 07:26:24;;;;;;;3.30;1.55;;;3.30;99.90;;;;;;6214345;23;20092;-91
2023/01/29 07:28:53;;;;;;;1.90;1.80;;;3.20;99.90;;;;;;6164717;23;20021;-91
2023/01/29 07:31:29;;;;;;;2.35;1.40;;;3.20;99.90;;;;;;6188814;23;20099;-91
2023/01/29 07:34:07;;;;;;;4.63;1.45;;;3.20;99.90;;;;;;6188846;23;20035;-93
2023/01/29 07:36:36;;;;;;;;;;;3.30;99.90;;;;;;6214395;23;20523;-91
2023/01/29 07:39:11;;;;;;;2.60;1.33;;;2.80;99.90;;;;;;6188916;23;19920;-92
2023/01/29 07:41:41;;;;;;;2.45;1.13;;;3.20;99.90;;;;;;6189263;23;20070;-92
2023/01/29 07:44:10;;;;;;;2.35;1.52;;;3.00;99.90;;;;;;6213843;23;20048;-91
2023/01/29 07:46:48;;;;;;;;;;;;;;;;;;;;;
2023/01/29 07:49:31;;;;;;;7.07;3.28;;;3.30;99.90;;;;;;6193988;23;20445;-90
2023/01/29 07:52:06;;;;;;;3.58;2.15;;;3.30;99.90;;;;;;6193074;23;20023;-92
2023/01/29 07:54:46;;;;;;;2.92;1.08;;;3.30;99.90;;;;;;6212993;23;20461;-91
2023/01/29 07:57:15;;;;;;;3.10;1.70;;;3.30;99.90;;;;;;6189203;23;20020;-91
2023/01/29 07:59:40;;;;;;;2.45;1.70;;;3.20;99.90;;;;;;6189878;23;20020;-93
2023/01/29 08:02:09;;;;;;;4.00;1.92;;;3.20;99.90;;;;;;6141724;23;20024;-91
2023/01/29 08:04:35;;;;;;;4.50;2.47;;;3.20;99.90;;;;;;6189665;23;20028;-90
2023/01/29 08:07:03;;;;;;;5.10;1.30;;;3.90;99.90;;;;;;6164871;23;20017;-92
2023/01/29 08:12:29;;;;;;;2.38;1.15;;;2.50;99.90;;;;;;6214471;23;20024;-91
2023/01/29 08:14:54;;;;;;;4.32;1.30;;;3.20;99.90;;;;;;6167628;23;20369;-92
2023/01/29 08:17:25;;;;;;;5.10;1.47;;;3.20;99.90;;;;;;6217611;23;20017;-93
2023/01/29 08:20:01;;;;;;;;;;;;;;;;;;;;;
2023/01/29 08:22:44;;;;;;;1.95;1.27;;;3.10;99.90;;;;;;6214630;23;20096;-91
2023/01/29 08:25:10;;;;;;;3.55;1.50;;;3.20;99.90;;;;;;6167141;23;20079;-90
2023/01/29 08:27:52;;;;;;;1.67;1.55;;;3.30;99.90;;;;;;6189870;23;20087;-90
2023/01/29 08:30:20;;;;;;;3.28;1.50;;;3.30;99.90;;;;;;6166264;23;20020;-93
2023/01/29 08:32:51;;;;;;;4.45;1.63;;;2.30;99.90;;;;;;6188757;23;20020;-92
2023/01/29 08:35:19;;;;;;;4.55;1.80;;;4.10;99.90;;;;;;6188964;23;20029;-93
2023/01/29 08:38:18;;;;;;;3.08;1.70;;;4.40;99.90;;;;;;6191367;23;20476;-95
2023/01/29 08:40:56;;;;;;;3.17;1.58;;;3.90;99.90;;;;;;6128951;23;20025;-92
2023/01/29 08:46:55;;;;;;;2.53;1.63;;;3.40;99.90;;;;;;6215865;23;20024;-92
2023/01/29 08:49:28;;;;;;;4.43;1.92;;;3.40;99.90;;;;;;6166553;23;20480;-92
2023/01/29 08:51:55;;;;;;;3.05;1.20;;;3.40;99.90;;;;;;6164956;23;20016;-92
2023/01/29 08:54:49;;;;;;;3.88;1.30;;;3.40;99.90;;;;;;6189486;23;20016;-92
2023/01/29 08:57:38;;;;;;;4.60;1.98;;;3.50;99.90;;;;;;6170267;23;20388;-92
2023/01/29 09:00:25;;;;;;;;;;;;;;;;;;;;;
2023/01/29 09:03:10;;;;;;;2.80;1.38;;;3.60;99.90;;;;;;6214787;23;20345;-90
2023/01/29 09:06:14;;;;;;;;;;;;;;;;;;;;;
2023/01/29 09:08:40;;;;;;;4.28;1.77;;;3.60;99.90;;;;;;6192709;23;20028;-91
2023/01/29 09:11:09;;;;;;;5.23;1.87;;;3.60;99.90;;;;;;6189847;23;20103;-91
2023/01/29 09:14:13;;;;;;;;;;;;;;;;;;;;;
2023/01/29 09:17:12;;;;;;;;;;;;;;;;;;;;;
2023/01/29 09:20:02;;;;;;;5.20;1.70;;;3.60;99.90;;;;;;6168710;23;20017;-92
2023/01/29 09:22:30;;;;;;;2.30;1.40;;;3.80;99.90;;;;;;6163948;23;20345;-91
2023/01/29 09:25:16;;;;;;;2.92;2.08;;;3.70;99.90;;;;;;6213291;23;20075;-90
2023/01/29 09:27:53;;;;;;;3.67;1.45;;;3.20;99.90;;;;;;6188073;23;20055;-90
2023/01/29 09:30:19;;;;;;;;;;;3.10;99.90;;;;;;6188607;23;20382;-95
2023/01/29 09:32:53;;;;;;;1.50;1.33;;;3.80;99.90;;;;;;6187718;23;19923;-91
2023/01/29 09:35:23;;;;;;;4.53;2.50;;;4.00;99.90;;;;;;6187719;23;20393;-90
2023/01/29 09:37:50;;;;;;;2.63;1.17;;;4.00;99.90;;;;;;6188071;23;20032;-91
2023/01/29 09:40:42;;;;;;;2.85;1.80;;;3.90;99.90;;;;;;6188554;23;20350;-90
2023/01/29 09:43:54;;;;;;;5.00;1.60;;;4.00;99.90;;;;;;6172676;23;20020;-90
2023/01/29 09:46:45;;;;;;;1.48;1.30;;;4.10;99.90;;;;;;6147292;23;20453;-90
2023/01/29 09:49:23;;;;;;;4.10;1.70;;;4.00;99.90;;;;;;6193685;23;20023;-90
2023/01/29 09:52:07;;;;;;;5.43;2.15;;;4.00;99.90;;;;;;6188311;23;20104;-90
2023/01/29 09:55:05;;;;;;;5.95;2.50;;;4.10;99.90;;;;;;6188621;23;20079;-94
2023/01/29 09:57:59;;;;;;;6.13;2.03;;;4.00;99.90;;;;;;6215233;23;20070;-96
2023/01/29 10:01:00;;;;;;;10.00;2.05;;;4.00;99.90;;;;;;6212707;23;20094;-92
2023/01/29 10:03:34;;;;;;;5.45;1.95;;;3.90;99.90;;;;;;6186945;23;20456;-91
2023/01/29 10:06:05;;;;;;;4.05;2.08;;;4.00;99.90;;;;;;6187916;23;20318;-92
2023/01/29 10:09:12;;;;;;;;;;;;;;;;;;;;;
2023/01/29 10:12:22;;;;;;;4.68;1.40;;;4.00;99.90;;;;;;6212764;23;20100;-93
2023/01/29 10:15:37;;;;;;;3.90;1.38;;;4.90;99.90;;;;;;6188481;23;20039;-92
2023/01/29 10:18:38;;;;;;;2.30;1.60;;;4.00;99.90;;;;;;6152612;23;20023;-94
2023/01/29 10:21:25;;;;;;;2.55;1.63;;;4.10;99.90;;;;;;6188896;23;20068;-92
2023/01/29 10:24:18;;;;;;;6.28;1.50;;;3.70;99.90;;;;;;6187867;23;20072;-93
2023/01/29 10:26:52;;;;;;;4.75;2.30;;;4.10;99.90;;;;;;6187960;23;20341;-92
2023/01/29 10:29:20;;;;;;;3.53;1.95;;;4.10;99.90;;;;;;6164271;23;20025;-96
2023/01/29 10:32:13;;;;;;;2.10;1.45;;;4.10;99.90;;;;;;6190631;23;20094;-93
2023/01/29 10:35:33;;;;;;;1.33;1.17;;;4.00;99.90;;;;;;6176514;23;20028;-91
2023/01/29 10:38:22;;;;;;;4.07;1.73;;;3.10;99.90;;;;;;6187106;23;20021;-96
2023/01/29 10:44:04;;;;;;;4.30;1.92;;;4.10;99.90;;;;;;6197919;23;20020;-93
2023/01/29 10:46:58;;;;;;;2.05;1.65;;;4.00;99.90;;;;;;6188505;23;20028;-92
2023/01/29 10:49:39;;;;;;;2.83;0.93;;;4.00;99.90;;;;;;6190009;23;20020;-92
2023/01/29 10:52:41;;;;;;;2.45;1.48;;;4.30;99.90;;;;;;6187888;23;20024;-93
2023/01/29 10:55:36;;;;;;;4.57;1.70;;;3.90;99.90;;;;;;6188878;23;20028;-93
2023/01/29 10:58:50;;;;;;;2.60;1.52;;;3.90;99.90;;;;;;6187952;23;20020;-94
2023/01/29 11:01:25;;;;;;;7.07;1.90;;;3.90;99.90;;;;;;6190621;23;20095;-94
2023/01/29 11:04:10;;;;;;;2.50;1.92;;;3.90;99.90;;;;;;6187109;23;20453;-88
2023/01/29 11:06:55;;;;;;;2.80;0.90;;;3.30;99.90;;;;;;6188481;23;20241;-92
2023/01/29 11:09:33;;;;;;;3.05;1.85;;;3.90;99.90;;;;;;6164867;23;20016;-89
2023/01/29 11:12:40;;;;;;;;;;;;;;;;;;;;;
2023/01/29 11:15:27;;;;;;;3.47;2.20;;;4.00;99.90;;;;;;6215129;23;20071;-90
2023/01/29 11:18:16;;;;;;;;;;;;;;;;;;;;;
2023/01/29 11:20:48;;;;;;;3.28;1.50;;;4.00;99.90;;;;;;6214269;23;20066;-89
2023/01/29 11:23:42;;;;;;;4.82;1.50;;;3.40;99.90;;;;;;6190068;23;20059;-89
2023/01/29 11:26:17;;;;;;;5.13;1.63;;;4.10;99.90;;;;;;6136874;23;20024;-89
2023/01/29 11:28:50;;;;;;;1.73;1.25;;;4.10;99.90;;;;;;6190272;23;20456;-90
2023/01/29 11:31:37;;;;;;;4.00;1.75;;;4.10;99.90;;;;;;6190386;23;20048;-89
2023/01/29 11:34:31;;;;;;;3.17;1.63;;;4.20;99.90;;;;;;6215407;23;20017;-89
2023/01/29 11:37:09;;;;;;;;;;;;;;;;;;;;;
2023/01/29 11:39:49;;;;;;;2.95;1.05;;;4.10;99.90;;;;;;6214230;23;20475;-90
2023/01/29 11:42:22;;;;;;;3.33;1.38;;;4.10;99.90;;;;;;6188117;23;20028;-89
2023/01/29 11:44:55;;;;;;;2.35;1.20;;;4.10;99.90;;;;;;6188885;23;20372;-89
2023/01/29 11:47:28;;;;;;;3.47;1.65;;;5.00;99.90;;;;;;6213758;23;20016;-91
2023/01/29 11:53:40;;;;;;;2.80;1.52;;;4.10;99.90;;;;;;6186541;23;20025;-90
2023/01/29 11:56:53;;;;;;;;;;;;;;;;;;;;;
2023/01/29 11:59:42;;;;;;;3.63;1.80;;;3.60;99.90;;;;;;6191750;23;20021;-89
2023/01/29 12:02:34;;;;;;;3.33;1.35;;;4.10;99.90;;;;;;6214482;23;20019;-89
2023/01/29 12:05:26;;;;;;;4.70;1.65;;;5.10;99.90;;;;;;6215012;23;20019;-89
2023/01/29 12:08:03;;;;;;;1.55;1.05;;;4.10;99.90;;;;;;6137713;23;20518;-89
2023/01/29 12:10:43;;;;;;;3.03;1.42;;;4.20;99.90;;;;;;6190385;23;20023;-93
2023/01/29 12:13:19;;;;;;;;;;;;;;;;;;;;;
2023/01/29 12:16:27;;;;;;;2.90;1.55;;;4.20;99.90;;;;;;6214140;23;20017;-89
2023/01/29 12:19:21;;;;;;;3.92;1.60;;;4.30;99.90;;;;;;6188239;23;20074;-89
2023/01/29 12:22:10;;;;;;;;;;;;;;;;;;;;;
2023/01/29 12:25:00;;;;;;;;;;;;;;;;;;;;;
2023/01/29 12:27:57;;;;;;;2.33;1.38;;;4.40;99.90;;;;;;6214667;23;20023;-89
2023/01/29 12:31:02;;;;;;;1.70;1.30;;;4.50;99.90;;;;;;6189797;23;20021;-89
2023/01/29 12:34:14;;;;;;;1.65;1.52;;;4.00;99.90;;;;;;6189499;23;20020;-90
2023/01/29 12:37:07;;;;;;;3.17;1.30;;;4.50;99.90;;;;;;6190051;23;20099;-89
2023/01/29 12:39:35;;;;;;;3.58;1.88;;;4.50;99.90;;;;;;6188969;23;20048;-89
2023/01/29 12:42:12;;;;;;;3.30;1.60;;;4.60;99.90;;;;;;6189581;23;20016;-88
2023/01/29 12:44:44;;;;;;;2.88;1.13;;;4.60;99.90;;;;;;6189125;23;20051;-89
2023/01/29 12:47:40;;;;;;;1.88;1.33;;;4.50;99.90;;;;;;6214666;23;20013;-89
2023/01/29 12:50:33;;;;;;;2.83;1.58;;;4.60;99.90;;;;;;6176100;23;20067;-89
2023/01/29 12:53:09;;;;;;;0.98;0.98;;;4.70;99.90;;;;;;6188958;23;20017;-90
2023/01/29 12:56:22;;;;;;;2.42;1.35;;;4.60;99.90;;;;;;6189159;23;20479;-89
2023/01/29 12:59:18;;;;;;;;;;;;;;;;;;;;;
2023/01/29 13:02:08;;;;;;;2.25;1.42;;;4.60;99.90;;;;;;6213872;23;20016;-90
2023/01/29 13:05:15;;;;;;;2.17;1.23;;;4.60;99.90;;;;;;6187371;23;20460;-89
2023/01/29 13:08:13;;;;;;;6.18;2.33;;;4.60;99.90;;;;;;6188611;23;20420;-89
2023/01/29 13:11:05;;;;;;;2.90;1.35;;;4.60;99.90;;;;;;6189474;23;20039;-89
2023/01/29 13:13:51;;;;;;;4.35;1.63;;;4.50;99.90;;;;;;6189232;23;20021;-89
2023/01/29 13:16:38;;;;;;;3.42;1.50;;;3.80;99.90;;;;;;6190930;23;20445;-90
2023/01/29 13:19:46;;;;;;;1.98;1.73;;;4.50;99.90;;;;;;6188551;23;20032;-90
2023/01/29 13:22:24;;;;;;;2.42;1.38;;;4.40;99.90;;;;;;6176271;23;20016;-89
2023/01/29 13:25:12;;;;;;;;;;;;;;;;;;;;;
2023/01/29 13:27:44;;;;;;;1.80;0.77;;;4.40;99.90;;;;;;6213763;23;20021;-89
2023/01/29 13:30:30;;;;;;;2.20;1.23;;;3.80;99.90;;;;;;6189292;23;20048;-89
2023/01/29 13:33:11;;;;;;;2.22;1.38;;;4.40;99.90;;;;;;6213744;23;20016;-89
2023/01/29 13:35:42;;;;;;;3.35;1.10;;;4.50;99.90;;;;;;6187896;23;20052;-89
2023/01/29 13:38:39;;;;;;;1.77;0.90;;;4.40;99.90;;;;;;6189491;23;20111;-90
2023/01/29 13:41:11;;;;;;;7.53;1.25;;;4.50;99.90;;;;;;6188514;23;20484;-90
2023/01/29 13:44:15;;;;;;;3.97;1.92;;;4.40;99.90;;;;;;6164420;23;20066;-90
2023/01/29 13:46:54;;;;;;;;;;;;;;;;;;;;;
2023/01/29 13:49:44;;;;;;;;;;;;;;;;;;;;;
2023/01/29 13:52:17;;;;;;;2.28;1.48;;;4.30;99.90;;;;;;6213873;23;20013;-89
2023/01/29 13:55:12;;;;;;;2.33;1.65;;;3.60;99.90;;;;;;6190419;23;20027;-90
2023/01/29 13:57:49;;;;;;;4.55;1.65;;;4.30;99.90;;;;;;6186895;23;20021;-89
2023/01/29 14:00:23;;;;;;;2.50;1.40;;;4.80;99.90;;;;;;6189496;23;20510;-89
2023/01/29 14:06:11;;;;;;;;;;;;;;;;;;;;;
2023/01/29 14:08:50;;;;;;;4.03;1.85;;;4.30;99.90;;;;;;6214240;23;20035;-89
2023/01/29 14:11:26;;;;;;;1.95;1.10;;;4.20;99.90;;;;;;6188407;23;20013;-89
2023/01/29 14:13:55;;;;;;;1.20;1.10;;;4.20;99.90;;;;;;6213676;23;20383;-90
2023/01/29 14:16:33;;;;;;;2.75;1.58;;;4.20;99.90;;;;;;6189438;23;20345;-90
2023/01/29 14:19:23;;;;;;;3.65;2.67;;;4.20;99.90;;;;;;6213564;23;20094;-89
2023/01/29 14:22:00;;;;;;;1.27;0.90;;;4.10;99.90;;;;;;6170816;23;20459;-91
2023/01/29 14:24:44;;;;;;;3.83;1.08;;;4.10;99.90;;;;;;6189332;23;20021;-90
2023/01/29 14:27:20;;;;;;;3.00;1.67;;;4.00;99.90;;;;;;6187975;23;20110;-90
2023/01/29 14:29:56;;;;;;;5.28;0.85;;;4.10;99.90;;;;;;6188131;23;20025;-93
2023/01/29 14:32:34;;;;;;;2.45;1.23;;;4.00;99.90;;;;;;6188795;23;20344;-86
2023/01/29 14:35:37;;;;;;;2.03;1.25;;;4.00;99.90;;;;;;6207390;23;20031;-90
2023/01/29 14:38:08;;;;;;;2.25;1.15;;;4.00;99.90;;;;;;6188626;23;20020;-89
2023/01/29 14:40:36;;;;;;;4.15;1.83;;;3.80;99.90;;;;;;6164725;23;20456;-88
2023/01/29 14:43:18;;;;;;;4.90;1.80;;;3.90;99.90;;;;;;6188706;23;20013;-89
2023/01/29 14:46:17;;;;;;;;;;;;;;;;;;;;;
2023/01/29 14:56:51;;;;;;;3.40;1.50;;;3.80;99.90;;;;;;6216479;23;20392;-89
2023/01/29 15:03:28;;;;;;;1.35;1.13;;;3.80;99.90;;;;;;6217426;23;20066;-89
2023/01/29 15:10:00;;;;;;;3.35;1.27;;;3.80;99.90;;;;;;6215371;23;20067;-89
2023/01/29 15:13:03;;;;;;;;;;;;;;;;;;;;;
2023/01/29 15:19:43;;;;;;;2.63;1.35;;;3.80;99.90;;;;;;6216708;23;20440;-90
2023/01/29 15:22:24;;;;;;;3.17;1.27;;;3.80;99.90;;;;;;6144999;23;20044;-90
2023/01/29 15:26:17;;;;;;;;;;;;;;;;;;;;;
2023/01/29 15:29:22;;;;;;;;;;;;;;;;;;;;;
2023/01/29 15:32:03;;;;;;;1.73;1.30;;;3.80;99.90;;;;;;6214325;23;20020;-93
2023/01/29 15:34:31;;;;;;;5.38;1.73;;;3.80;99.90;;;;;;6213519;23;20465;-88
2023/01/29 15:37:03;;;;;;;2.20;1.33;;;3.80;99.90;;;;;;6188491;23;20028;-94
2023/01/29 15:39:30;;;;;;;4.70;1.65;;;3.90;99.90;;;;;;6188213;23;20449;-92
2023/01/29 15:42:11;;;;;;;;;;;3.80;99.90;;;;;;6214057;23;20048;-89
2023/01/29 15:44:47;;;;;;;5.18;2.10;;;3.20;99.90;;;;;;6188921;23;19969;-89
2023/01/29 15:47:19;;;;;;;5.05;2.90;;;3.80;99.90;;;;;;6164576;23;20020;-90
2023/01/29 15:49:45;;;;;;;3.22;1.27;;;3.80;99.90;;;;;;6188929;23;20025;-89
2023/01/29 15:52:37;;;;;;;3.53;2.45;;;2.90;99.90;;;;;;6188821;23;20449;-89
2023/01/29 15:55:22;;;;;;;1.42;1.27;;;3.80;99.90;;;;;;6171771;23;20345;-89